createdAt,value
2022-09-13T00:00:11.908Z,72.34
2022-09-13T00:01:12.192Z,72.44
2022-09-13T00:02:12.311Z,72.14
2022-09-13T00:03:12.448Z,72.55
2022-09-13T00:04:12.618Z,72.14
2022-09-13T00:05:12.790Z,71.84
2022-09-13T00:06:12.950Z,72.85
2022-09-13T00:07:13.142Z,72.64
2022-09-13T00:08:13.288Z,72.75
2022-09-13T00:09:13.508Z,72.55
2022-09-13T00:10:13.659Z,73.05
2022-09-13T00:11:13.856Z,73.05
2022-09-13T00:12:14.029Z,73.15
2022-09-13T00:13:14.198Z,73.15
2022-09-13T00:14:14.382Z,72.95
2022-09-13T00:15:14.538Z,72.44
2022-09-13T00:16:14.723Z,72.85
2022-09-13T00:17:14.880Z,72.64
2022-09-13T00:18:15.038Z,72.75
2022-09-13T00:19:15.218Z,72.55
2022-09-13T00:20:15.369Z,72.34
2022-09-13T00:21:15.529Z,72.64
2022-09-13T00:22:15.689Z,72.64
2022-09-13T00:23:15.855Z,72.24
2022-09-13T00:24:16.028Z,72.75
2022-09-13T00:25:16.189Z,72.44
2022-09-13T00:26:16.347Z,73.05
2022-09-13T00:27:16.514Z,73.19
2022-09-13T00:28:16.672Z,72.68
2022-09-13T00:29:16.832Z,72.48
2022-09-13T00:30:16.990Z,73.19
2022-09-13T00:31:17.178Z,73.08
2022-09-13T00:32:17.308Z,73.19
2022-09-13T00:33:17.499Z,72.78
2022-09-13T00:34:17.658Z,72.68
2022-09-13T00:35:17.819Z,72.78
2022-09-13T00:36:17.978Z,72.48
2022-09-13T00:37:18.139Z,72.78
2022-09-13T00:38:18.320Z,72.68
2022-09-13T00:39:18.481Z,72.48
2022-09-13T00:40:18.693Z,72.58
2022-09-13T00:41:18.819Z,72.78
2022-09-13T00:42:18.983Z,72.88
2022-09-13T00:43:19.167Z,73.28
2022-09-13T00:44:19.325Z,72.92
2022-09-13T00:45:19.480Z,72.81
2022-09-13T00:46:19.639Z,73.02
2022-09-13T00:47:19.828Z,72.81
2022-09-13T00:48:20.020Z,72.81
2022-09-13T00:49:20.190Z,72.72
2022-09-13T00:50:20.338Z,72.51
2022-09-13T00:51:20.500Z,72.61
2022-09-13T00:52:20.656Z,73.12
2022-09-13T00:53:20.878Z,72.41
2022-09-13T00:54:21.030Z,72.51
2022-09-13T00:55:21.220Z,72.92
2022-09-13T00:56:21.378Z,72.41
2022-09-13T00:57:21.583Z,72.72
2022-09-13T00:58:21.738Z,73.12
2022-09-13T00:59:21.897Z,73.02
2022-09-13T01:00:22.049Z,73.22
2022-09-13T01:01:22.294Z,73.12
2022-09-13T01:02:22.432Z,73.32
2022-09-13T01:03:22.568Z,72.75
2022-09-13T01:04:22.731Z,72.61
2022-09-13T01:05:22.928Z,73.15
2022-09-13T01:06:23.088Z,73.05
2022-09-13T01:07:23.267Z,73.46
2022-09-13T01:08:23.441Z,73.15
2022-09-13T01:09:23.600Z,73.76
2022-09-13T01:10:23.758Z,72.75
2022-09-13T01:11:23.917Z,72.55
2022-09-13T01:12:24.129Z,73.36
2022-09-13T01:13:24.288Z,73.46
2022-09-13T01:14:24.450Z,73.46
2022-09-13T01:15:24.611Z,72.55
2022-09-13T01:16:24.806Z,72.55
2022-09-13T01:17:24.968Z,73.05
2022-09-13T01:18:25.138Z,73.15
2022-09-13T01:19:25.302Z,72.75
2022-09-13T01:20:25.458Z,73.15
2022-09-13T01:21:25.630Z,73.86
2022-09-13T01:22:25.789Z,74.07
2022-09-13T01:23:25.961Z,74.07
2022-09-13T01:24:26.109Z,73.86
2022-09-13T01:25:26.308Z,73.66
2022-09-13T01:26:26.460Z,73.46
2022-09-13T01:27:26.679Z,73.05
2022-09-13T01:28:26.808Z,73.05
2022-09-13T01:29:26.998Z,73.25
2022-09-13T01:30:27.169Z,73.36
2022-09-13T01:31:27.405Z,73.56
2022-09-13T01:32:27.528Z,73.96
2022-09-13T01:33:27.700Z,74.16
2022-09-13T01:34:27.850Z,74.30
2022-09-13T01:35:28.048Z,74.30
2022-09-13T01:36:28.208Z,73.69
2022-09-13T01:37:28.407Z,74.40
2022-09-13T01:38:28.528Z,74.10
2022-09-13T01:39:28.719Z,73.69
2022-09-13T01:40:28.885Z,74.40
2022-09-13T01:41:29.049Z,74.30
2022-09-13T01:42:29.229Z,74.51
2022-09-13T01:43:29.389Z,74.60
2022-09-13T01:44:29.549Z,74.30
2022-09-13T01:45:29.788Z,74.60
2022-09-13T01:46:29.908Z,74.60
2022-09-13T01:47:30.088Z,74.60
2022-09-13T01:48:30.248Z,74.51
2022-09-13T01:49:30.438Z,74.40
2022-09-13T01:50:30.606Z,74.30
2022-09-13T01:51:30.779Z,74.10
2022-09-13T01:52:30.929Z,74.30
2022-09-13T01:53:31.129Z,74.51
2022-09-13T01:54:31.288Z,74.71
2022-09-13T01:55:31.449Z,74.84
2022-09-13T01:56:31.618Z,74.64
2022-09-13T01:57:31.785Z,74.33
2022-09-13T01:58:31.939Z,74.60
2022-09-13T01:59:32.143Z,74.44
2022-09-13T02:00:32.309Z,74.51
2022-09-13T02:01:32.516Z,74.20
2022-09-13T02:02:32.673Z,74.51
2022-09-13T02:03:32.798Z,74.10
2022-09-13T02:04:32.960Z,73.80
2022-09-13T02:05:33.140Z,73.29
2022-09-13T02:06:33.290Z,73.69
2022-09-13T02:07:33.478Z,73.49
2022-09-13T02:08:33.638Z,73.09
2022-09-13T02:09:33.847Z,73.69
2022-09-13T02:10:34.018Z,74.30
2022-09-13T02:11:34.179Z,74.40
2022-09-13T02:12:34.333Z,74.40
2022-09-13T02:13:34.527Z,74.00
2022-09-13T02:14:34.679Z,74.10
2022-09-13T02:15:34.897Z,74.20
2022-09-13T02:16:35.222Z,74.10
2022-09-13T02:17:35.218Z,74.00
2022-09-13T02:18:35.379Z,74.20
2022-09-13T02:19:35.538Z,73.49
2022-09-13T02:20:35.718Z,74.20
2022-09-13T02:21:35.878Z,74.20
2022-09-13T02:22:36.033Z,74.00
2022-09-13T02:23:36.219Z,73.59
2022-09-13T02:24:36.378Z,74.10
2022-09-13T02:25:36.588Z,74.20
2022-09-13T02:26:36.757Z,74.30
2022-09-13T02:27:36.928Z,74.10
2022-09-13T02:28:37.089Z,74.00
2022-09-13T02:29:37.309Z,74.00
2022-09-13T02:30:37.459Z,74.30
2022-09-13T02:31:37.713Z,74.30
2022-09-13T02:32:37.820Z,74.71
2022-09-13T02:33:38.079Z,74.71
2022-09-13T02:34:38.209Z,74.20
2022-09-13T02:35:38.369Z,74.40
2022-09-13T02:36:38.529Z,74.81
2022-09-13T02:37:38.689Z,74.30
2022-09-13T02:38:38.848Z,74.10
2022-09-13T02:39:39.233Z,74.40
2022-09-13T02:40:39.189Z,73.69
2022-09-13T02:41:39.350Z,74.20
2022-09-13T02:42:39.509Z,73.69
2022-09-13T02:43:39.669Z,74.20
2022-09-13T02:44:39.840Z,74.10
2022-09-13T02:45:40.021Z,74.00
2022-09-13T02:46:40.188Z,74.00
2022-09-13T02:47:40.380Z,74.00
2022-09-13T02:48:40.539Z,74.00
2022-09-13T02:49:40.761Z,74.20
2022-09-13T02:50:40.917Z,74.20
2022-09-13T02:51:41.128Z,74.10
2022-09-13T02:52:41.278Z,74.20
2022-09-13T02:53:41.468Z,74.00
2022-09-13T02:54:41.650Z,74.00
2022-09-13T02:55:41.808Z,73.90
2022-09-13T02:56:41.965Z,74.00
2022-09-13T02:57:42.159Z,73.80
2022-09-13T02:58:42.398Z,73.90
2022-09-13T02:59:42.499Z,74.10
2022-09-13T03:00:42.661Z,73.59
2022-09-13T03:01:42.819Z,73.80
2022-09-13T03:02:42.979Z,74.10
2022-09-13T03:03:43.178Z,73.90
2022-09-13T03:04:43.350Z,73.90
2022-09-13T03:05:43.519Z,73.29
2022-09-13T03:06:43.668Z,73.59
2022-09-13T03:07:43.859Z,73.90
2022-09-13T03:08:44.019Z,73.90
2022-09-13T03:09:44.219Z,74.00
2022-09-13T03:10:44.338Z,74.00
2022-09-13T03:11:44.499Z,74.00
2022-09-13T03:12:44.658Z,73.80
2022-09-13T03:13:44.840Z,73.80
2022-09-13T03:14:45.018Z,74.00
2022-09-13T03:15:45.179Z,74.00
2022-09-13T03:16:45.382Z,74.00
2022-09-13T03:17:45.550Z,74.20
2022-09-13T03:18:45.697Z,74.13
2022-09-13T03:19:45.889Z,73.93
2022-09-13T03:20:46.048Z,74.04
2022-09-13T03:21:46.248Z,74.13
2022-09-13T03:22:46.408Z,74.13
2022-09-13T03:23:46.599Z,74.24
2022-09-13T03:24:46.780Z,74.04
2022-09-13T03:25:46.942Z,74.13
2022-09-13T03:26:47.103Z,74.04
2022-09-13T03:27:47.288Z,74.13
2022-09-13T03:28:47.461Z,74.24
2022-09-13T03:29:47.651Z,74.24
2022-09-13T03:30:47.809Z,74.04
2022-09-13T03:31:48.028Z,73.83
2022-09-13T03:32:48.191Z,73.93
2022-09-13T03:33:48.390Z,73.73
2022-09-13T03:34:48.558Z,73.83
2022-09-13T03:35:48.719Z,73.73
2022-09-13T03:36:48.868Z,73.59
2022-09-13T03:37:49.070Z,73.83
2022-09-13T03:38:49.319Z,73.83
2022-09-13T03:39:49.457Z,74.13
2022-09-13T03:40:49.549Z,74.24
2022-09-13T03:41:49.708Z,74.24
2022-09-13T03:42:49.868Z,74.24
2022-09-13T03:43:50.060Z,74.33
2022-09-13T03:44:50.238Z,74.33
2022-09-13T03:45:50.472Z,74.33
2022-09-13T03:46:50.580Z,74.13
2022-09-13T03:47:50.769Z,74.04
2022-09-13T03:48:50.929Z,73.83
2022-09-13T03:49:51.198Z,74.24
2022-09-13T03:50:51.332Z,74.24
2022-09-13T03:51:51.488Z,73.93
2022-09-13T03:52:51.650Z,74.13
2022-09-13T03:53:51.839Z,74.44
2022-09-13T03:54:52.040Z,74.44
2022-09-13T03:55:52.167Z,74.54
2022-09-13T03:56:52.330Z,74.54
2022-09-13T03:57:52.508Z,74.64
2022-09-13T03:58:52.679Z,74.54
2022-09-13T03:59:52.849Z,74.74
2022-09-13T04:00:53.069Z,74.54
2022-09-13T04:01:53.193Z,74.54
2022-09-13T04:02:53.368Z,74.71
2022-09-13T04:03:56.780Z,74.60
2022-09-13T04:04:53.702Z,74.40
2022-09-13T04:05:53.866Z,74.30
2022-09-13T04:06:54.030Z,74.20
2022-09-13T04:07:54.189Z,74.20
2022-09-13T04:08:54.379Z,74.40
2022-09-13T04:09:54.507Z,74.20
2022-09-13T04:10:54.668Z,73.80
2022-09-13T04:11:54.938Z,73.66
2022-09-13T04:12:55.046Z,73.66
2022-09-13T04:13:55.219Z,73.56
2022-09-13T04:14:55.378Z,73.46
2022-09-13T04:15:55.541Z,73.25
2022-09-13T04:16:55.709Z,73.46
2022-09-13T04:17:55.869Z,73.36
2022-09-13T04:18:56.079Z,73.15
2022-09-13T04:19:56.246Z,73.36
2022-09-13T04:20:56.407Z,73.25
2022-09-13T04:21:56.578Z,73.15
2022-09-13T04:22:56.777Z,73.25
2022-09-13T04:23:56.929Z,73.25
2022-09-13T04:25:01.516Z,73.36
2022-09-13T04:25:58.289Z,73.15
2022-09-13T04:26:57.459Z,73.66
2022-09-13T04:27:57.622Z,73.15
2022-09-13T04:28:57.820Z,73.25
2022-09-13T04:29:57.969Z,73.32
2022-09-13T04:30:58.152Z,73.02
2022-09-13T04:31:58.434Z,72.92
2022-09-13T04:32:58.491Z,73.12
2022-09-13T04:33:58.719Z,73.02
2022-09-13T04:34:58.870Z,73.02
2022-09-13T04:35:59.199Z,72.92
2022-09-13T04:36:59.242Z,73.12
2022-09-13T04:37:59.419Z,72.72
2022-09-13T04:38:59.620Z,73.12
2022-09-13T04:39:59.818Z,73.12
2022-09-13T04:40:59.939Z,72.92
2022-09-13T04:42:00.119Z,72.78
2022-09-13T04:43:00.288Z,72.58
2022-09-13T04:44:00.459Z,72.58
2022-09-13T04:45:00.630Z,72.38
2022-09-13T04:46:00.821Z,72.38
2022-09-13T04:47:00.991Z,72.38
2022-09-13T04:48:01.170Z,72.28
2022-09-13T04:49:01.378Z,72.04
2022-09-13T04:50:01.550Z,72.14
2022-09-13T04:51:01.701Z,71.84
2022-09-13T04:52:01.848Z,71.73
2022-09-13T04:53:02.062Z,71.73
2022-09-13T04:54:02.222Z,71.84
2022-09-13T04:55:02.358Z,71.84
2022-09-13T04:56:02.558Z,71.03
2022-09-13T04:57:02.739Z,71.13
2022-09-13T04:58:02.928Z,71.23
2022-09-13T04:59:03.132Z,71.10
2022-09-13T05:00:03.269Z,71.50
2022-09-13T05:01:03.522Z,70.89
2022-09-13T05:02:03.641Z,71.30
2022-09-13T05:03:03.797Z,71.20
2022-09-13T05:04:03.988Z,71.20
2022-09-13T05:05:04.169Z,70.69
2022-09-13T05:06:04.360Z,71.10
2022-09-13T05:07:04.548Z,70.46
2022-09-13T05:08:04.730Z,70.59
2022-09-13T05:09:04.945Z,70.36
2022-09-13T05:10:05.059Z,70.86
2022-09-13T05:11:05.263Z,70.26
2022-09-13T05:12:05.436Z,70.36
2022-09-13T05:13:05.597Z,70.46
2022-09-13T05:14:05.889Z,70.15
2022-09-13T05:15:05.929Z,69.82
2022-09-13T05:16:06.127Z,69.62
2022-09-13T05:17:06.269Z,69.92
2022-09-13T05:18:06.429Z,70.02
2022-09-13T05:19:06.609Z,69.92
2022-09-13T05:20:07.733Z,69.72
2022-09-13T05:21:06.939Z,69.38
2022-09-13T05:22:07.099Z,69.28
2022-09-13T05:23:07.268Z,69.28
2022-09-13T05:24:07.444Z,69.28
2022-09-13T05:25:07.589Z,69.89
2022-09-13T05:26:07.779Z,69.38
2022-09-13T05:27:07.959Z,69.28
2022-09-13T05:28:08.168Z,69.48
2022-09-13T05:29:08.328Z,69.38
2022-09-13T05:30:08.472Z,69.68
2022-09-13T05:31:08.775Z,69.59
2022-09-13T05:32:08.849Z,69.68
2022-09-13T05:33:09.073Z,69.89
2022-09-13T05:34:09.239Z,69.89
2022-09-13T05:35:09.382Z,69.89
2022-09-13T05:36:09.612Z,69.59
2022-09-13T05:37:09.759Z,69.75
2022-09-13T05:38:09.961Z,69.95
2022-09-13T05:39:30.296Z,70.26
2022-09-13T05:40:12.579Z,70.26
2022-09-13T05:41:10.512Z,69.95
2022-09-13T05:42:10.650Z,69.95
2022-09-13T05:43:10.839Z,69.95
2022-09-13T05:44:13.616Z,70.12
2022-09-13T05:45:11.180Z,70.02
2022-09-13T05:46:11.356Z,70.12
2022-09-13T05:47:11.537Z,70.32
2022-09-13T05:48:11.710Z,70.22
2022-09-13T05:49:11.942Z,70.42
2022-09-13T05:50:27.250Z,70.22
2022-09-13T05:51:13.232Z,70.12
2022-09-13T05:52:12.421Z,70.12
2022-09-13T05:53:12.599Z,70.12
2022-09-13T05:54:12.825Z,70.19
2022-09-13T05:55:12.980Z,69.99
2022-09-13T05:56:16.480Z,70.19
2022-09-13T05:57:13.302Z,69.99
2022-09-13T05:58:13.460Z,69.99
2022-09-13T05:59:13.640Z,70.09
2022-09-13T06:00:13.792Z,69.89
2022-09-13T06:01:13.950Z,69.89
2022-09-13T06:02:14.235Z,70.19
2022-09-13T06:03:14.331Z,70.19
2022-09-13T06:04:14.539Z,70.29
2022-09-13T06:05:14.683Z,70.50
2022-09-13T06:06:14.860Z,70.70
2022-09-13T06:07:15.040Z,70.59
2022-09-13T06:08:15.190Z,70.70
2022-09-13T06:09:15.398Z,70.90
2022-09-13T06:10:15.531Z,70.79
2022-09-13T06:11:15.712Z,70.66
2022-09-13T06:12:15.900Z,71.00
2022-09-13T06:13:16.091Z,71.00
2022-09-13T06:14:16.260Z,70.96
2022-09-13T06:15:16.411Z,70.86
2022-09-13T06:16:16.653Z,70.76
2022-09-13T06:17:16.732Z,70.86
2022-09-13T06:18:16.945Z,70.86
2022-09-13T06:19:17.102Z,71.06
2022-09-13T06:20:17.243Z,70.86
2022-09-13T06:21:17.433Z,70.76
2022-09-13T06:22:17.581Z,71.16
2022-09-13T06:23:17.785Z,71.36
2022-09-13T06:24:17.961Z,70.86
2022-09-13T06:25:18.160Z,70.96
2022-09-13T06:26:18.290Z,70.76
2022-09-13T06:27:18.462Z,71.06
2022-09-13T06:28:20.722Z,70.96
2022-09-13T06:29:18.830Z,70.86
2022-09-13T06:30:19.001Z,70.86
2022-09-13T06:31:19.223Z,70.73
2022-09-13T06:32:19.341Z,70.73
2022-09-13T06:33:19.501Z,70.93
2022-09-13T06:34:19.682Z,70.73
2022-09-13T06:35:19.829Z,70.63
2022-09-13T06:36:19.982Z,70.63
2022-09-13T06:37:20.167Z,70.73
2022-09-13T06:38:20.312Z,70.63
2022-09-13T06:39:20.502Z,70.12
2022-09-13T06:40:24.930Z,70.43
2022-09-13T06:41:20.791Z,70.39
2022-09-13T06:42:20.971Z,70.09
2022-09-13T06:43:21.158Z,69.99
2022-09-13T06:44:21.351Z,69.99
2022-09-13T06:45:21.530Z,69.79
2022-09-13T06:46:25.217Z,69.35
2022-09-13T06:47:21.875Z,69.85
2022-09-13T06:48:22.077Z,70.06
2022-09-13T06:49:22.267Z,69.82
2022-09-13T06:50:22.410Z,69.82
2022-09-13T06:51:22.587Z,69.32
2022-09-13T06:52:22.763Z,69.62
2022-09-13T06:53:22.954Z,69.49
2022-09-13T06:54:23.151Z,68.99
2022-09-13T06:55:23.313Z,68.88
2022-09-13T06:56:23.485Z,68.88
2022-09-13T06:57:23.663Z,68.45
2022-09-13T06:58:23.858Z,68.05
2022-09-13T06:59:24.033Z,68.22
2022-09-13T07:00:24.196Z,67.92
2022-09-13T07:01:24.513Z,67.92
2022-09-13T07:02:24.628Z,67.32
2022-09-13T07:03:24.730Z,67.38
2022-09-13T07:04:24.912Z,67.29
2022-09-13T07:05:25.102Z,67.58
2022-09-13T07:06:25.283Z,67.15
2022-09-13T07:07:25.484Z,66.85
2022-09-13T07:08:25.623Z,66.75
2022-09-13T07:09:25.823Z,66.45
2022-09-13T07:10:25.992Z,66.42
2022-09-13T07:11:26.183Z,66.42
2022-09-13T07:12:26.333Z,66.12
2022-09-13T07:13:26.514Z,65.12
2022-09-13T07:14:26.704Z,65.42
2022-09-13T07:15:26.854Z,64.42
2022-09-13T07:16:27.046Z,64.51
2022-09-13T07:17:31.207Z,65.09
2022-09-13T07:18:27.377Z,64.48
2022-09-13T07:19:27.574Z,65.09
2022-09-13T07:20:27.734Z,64.59
2022-09-13T07:21:27.914Z,64.59
2022-09-13T07:22:28.068Z,64.69
2022-09-13T07:23:28.259Z,64.65
2022-09-13T07:24:28.445Z,64.55
2022-09-13T07:25:28.595Z,64.25
2022-09-13T07:26:28.775Z,63.65
2022-09-13T07:27:28.945Z,63.35
2022-09-13T07:28:33.402Z,63.53
2022-09-13T07:29:30.304Z,63.22
2022-09-13T07:30:29.455Z,62.72
2022-09-13T07:31:29.682Z,63.22
2022-09-13T07:32:29.806Z,63.22
2022-09-13T07:33:29.986Z,63.42
2022-09-13T07:34:30.235Z,62.92
2022-09-13T07:35:30.346Z,62.92
2022-09-13T07:36:30.522Z,62.79
2022-09-13T07:37:30.706Z,63.29
2022-09-13T07:38:30.885Z,63.29
2022-09-13T07:39:31.085Z,63.19
2022-09-13T07:40:31.255Z,62.59
2022-09-13T07:41:31.442Z,62.29
2022-09-13T07:42:31.615Z,62.59
2022-09-13T07:43:31.798Z,62.99
2022-09-13T07:44:31.993Z,62.89
2022-09-13T07:45:32.139Z,62.89
2022-09-13T07:46:32.469Z,62.29
2022-09-13T07:47:32.485Z,62.39
2022-09-13T07:48:33.674Z,61.99
2022-09-13T07:49:32.876Z,62.39
2022-09-13T07:50:33.007Z,62.56
2022-09-13T07:51:33.196Z,61.76
2022-09-13T07:52:33.387Z,61.99
2022-09-13T07:53:33.577Z,62.09
2022-09-13T07:54:33.766Z,62.49
2022-09-13T07:55:33.917Z,62.59
2022-09-13T07:56:34.098Z,62.79
2022-09-13T07:57:34.277Z,63.19
2022-09-13T07:58:34.459Z,63.29
2022-09-13T07:59:34.658Z,63.26
2022-09-13T08:00:34.797Z,63.26
2022-09-13T08:01:35.042Z,62.96
2022-09-13T08:02:35.223Z,62.76
2022-09-13T08:03:35.318Z,62.66
2022-09-13T08:04:36.550Z,62.37
2022-09-13T08:05:35.672Z,62.06
2022-09-13T08:06:35.890Z,62.26
2022-09-13T08:07:36.027Z,62.56
2022-09-13T08:08:36.215Z,61.87
2022-09-13T08:09:36.408Z,61.96
2022-09-13T08:10:36.547Z,61.76
2022-09-13T08:11:36.747Z,61.76
2022-09-13T08:12:36.917Z,61.96
2022-09-13T08:13:37.105Z,62.23
2022-09-13T08:14:37.309Z,62.23
2022-09-13T08:15:37.482Z,62.73
2022-09-13T08:16:37.632Z,62.34
2022-09-13T08:17:37.798Z,61.93
2022-09-13T08:18:37.999Z,62.20
2022-09-13T08:19:38.178Z,61.71
2022-09-13T08:20:38.360Z,61.80
2022-09-13T08:21:38.538Z,61.60
2022-09-13T08:22:38.719Z,61.80
2022-09-13T08:23:38.899Z,62.01
2022-09-13T08:24:39.133Z,61.51
2022-09-13T08:25:39.269Z,61.21
2022-09-13T08:26:39.449Z,61.41
2022-09-13T08:27:39.634Z,61.51
2022-09-13T08:28:39.819Z,61.60
2022-09-13T08:29:40.039Z,61.87
2022-09-13T08:30:40.249Z,61.68
2022-09-13T08:31:40.359Z,61.38
2022-09-13T08:32:40.529Z,61.25
2022-09-13T08:33:45.534Z,60.35
2022-09-13T08:34:41.939Z,60.22
2022-09-13T08:35:41.039Z,60.06
2022-09-13T08:36:41.220Z,59.31
2022-09-13T08:37:41.393Z,58.28
2022-09-13T08:38:41.570Z,58.48
2022-09-13T08:39:41.767Z,58.26
2022-09-13T08:40:41.903Z,56.34
2022-09-13T08:41:42.180Z,56.21
2022-09-13T08:42:42.261Z,55.79
2022-09-13T08:43:42.478Z,55.17
2022-09-13T08:44:42.641Z,54.64
2022-09-13T08:45:42.820Z,54.35
2022-09-13T08:46:43.018Z,53.53
2022-09-13T08:47:43.195Z,54.62
2022-09-13T08:48:43.392Z,54.30
2022-09-13T08:49:43.547Z,53.70
2022-09-13T08:50:43.715Z,54.10
2022-09-13T08:51:43.882Z,52.09
2022-09-13T08:52:44.095Z,51.70
2022-09-13T08:53:44.242Z,52.19
2022-09-13T08:54:44.423Z,51.79
2022-09-13T08:55:44.622Z,51.40
2022-09-13T08:56:44.783Z,51.67
2022-09-13T08:57:44.953Z,51.15
2022-09-13T08:58:45.182Z,50.53
2022-09-13T08:59:45.326Z,49.74
2022-09-13T09:00:45.503Z,49.64
2022-09-13T09:01:45.725Z,49.25
2022-09-13T09:02:45.880Z,49.35
2022-09-13T09:03:46.026Z,49.44
2022-09-13T09:04:46.175Z,48.95
2022-09-13T09:05:46.335Z,49.22
2022-09-13T09:06:46.547Z,49.22
2022-09-13T09:07:46.716Z,49.52
2022-09-13T09:08:46.897Z,50.01
2022-09-13T09:09:47.037Z,50.19
2022-09-13T09:10:47.224Z,49.67
2022-09-13T09:11:47.409Z,48.93
2022-09-13T09:12:47.565Z,48.49
2022-09-13T09:13:47.763Z,47.88
2022-09-13T09:14:47.945Z,47.53
2022-09-13T09:15:48.155Z,45.17
2022-09-13T09:16:48.338Z,45.19
2022-09-13T09:17:48.476Z,45.61
2022-09-13T09:18:48.706Z,46.30
2022-09-13T09:19:48.816Z,46.03
2022-09-13T09:20:49.010Z,46.03
2022-09-13T09:21:49.187Z,46.32
2022-09-13T09:22:49.375Z,46.03
2022-09-13T09:23:49.665Z,46.30
2022-09-13T09:24:49.711Z,46.08
2022-09-13T09:25:49.899Z,46.15
2022-09-13T09:26:50.078Z,45.56
2022-09-13T09:27:50.258Z,45.96
2022-09-13T09:28:50.454Z,46.35
2022-09-13T09:29:50.619Z,45.64
2022-09-13T09:30:50.858Z,45.94
2022-09-13T09:31:50.988Z,44.73
2022-09-13T09:32:51.185Z,44.34
2022-09-13T09:33:51.342Z,44.85
2022-09-13T09:34:51.502Z,45.07
2022-09-13T09:35:51.667Z,45.59
2022-09-13T09:36:51.835Z,46.00
2022-09-13T09:37:52.002Z,46.03
2022-09-13T09:38:52.180Z,47.43
2022-09-13T09:39:52.397Z,47.53
2022-09-13T09:40:52.501Z,47.94
2022-09-13T09:41:52.690Z,48.16
2022-09-13T09:42:52.841Z,48.27
2022-09-13T09:43:53.041Z,48.14
2022-09-13T09:44:53.213Z,48.04
2022-09-13T09:45:53.426Z,47.53
2022-09-13T09:46:53.561Z,47.63
2022-09-13T09:47:53.718Z,47.72
2022-09-13T09:48:53.926Z,48.61
2022-09-13T09:49:54.082Z,48.19
2022-09-13T09:50:54.262Z,48.00
2022-09-13T09:51:54.424Z,47.90
2022-09-13T09:52:54.623Z,47.97
2022-09-13T09:53:54.795Z,47.48
2022-09-13T09:54:54.956Z,46.77
2022-09-13T09:55:55.123Z,46.57
2022-09-13T09:56:55.321Z,46.84
2022-09-13T09:57:55.496Z,46.45
2022-09-13T09:58:55.706Z,45.76
2022-09-13T09:59:55.828Z,45.17
2022-09-13T10:00:56.020Z,46.15
2022-09-13T10:01:56.319Z,45.54
2022-09-13T10:02:56.366Z,45.64
2022-09-13T10:03:56.586Z,45.52
2022-09-13T10:04:56.736Z,44.73
2022-09-13T10:05:56.902Z,44.62
2022-09-13T10:06:57.086Z,44.98
2022-09-13T10:07:57.257Z,44.59
2022-09-13T10:08:57.483Z,45.45
2022-09-13T10:09:57.630Z,43.98
2022-09-13T10:10:57.807Z,44.08
2022-09-13T10:11:57.994Z,44.74
2022-09-13T10:12:58.157Z,43.76
2022-09-13T10:13:58.347Z,43.76
2022-09-13T10:14:58.498Z,44.06
2022-09-13T10:15:58.679Z,43.88
2022-09-13T10:16:58.918Z,42.61
2022-09-13T10:17:59.020Z,44.27
2022-09-13T10:18:59.218Z,43.32
2022-09-13T10:19:59.379Z,43.24
2022-09-13T10:20:59.536Z,44.34
2022-09-13T10:21:59.719Z,44.54
2022-09-13T10:22:59.889Z,44.54
2022-09-13T10:24:00.100Z,45.03
2022-09-13T10:25:00.239Z,45.42
2022-09-13T10:26:00.409Z,45.13
2022-09-13T10:27:00.583Z,45.13
2022-09-13T10:28:00.749Z,45.23
2022-09-13T10:29:00.942Z,45.32
2022-09-13T10:30:01.099Z,45.62
2022-09-13T10:31:01.352Z,45.45
2022-09-13T10:32:01.471Z,45.86
2022-09-13T10:33:01.638Z,46.06
2022-09-13T10:34:01.821Z,45.86
2022-09-13T10:35:01.999Z,45.86
2022-09-13T10:36:02.143Z,46.15
2022-09-13T10:37:02.320Z,47.04
2022-09-13T10:38:02.489Z,45.96
2022-09-13T10:39:02.662Z,46.55
2022-09-13T10:40:02.854Z,46.57
2022-09-13T10:41:02.998Z,46.47
2022-09-13T10:42:03.184Z,46.40
2022-09-13T10:43:03.360Z,46.40
2022-09-13T10:44:06.576Z,46.59
2022-09-13T10:45:04.708Z,46.81
2022-09-13T10:46:03.914Z,47.01
2022-09-13T10:47:04.053Z,47.72
2022-09-13T10:48:04.193Z,47.75
2022-09-13T10:49:04.393Z,48.36
2022-09-13T10:50:04.533Z,48.88
2022-09-13T10:51:04.718Z,48.41
2022-09-13T10:52:04.894Z,48.83
2022-09-13T10:53:05.092Z,49.52
2022-09-13T10:54:05.235Z,49.64
2022-09-13T10:55:05.414Z,50.26
2022-09-13T10:56:05.602Z,50.76
2022-09-13T10:57:05.783Z,51.77
2022-09-13T10:58:05.978Z,52.46
2022-09-13T10:59:06.145Z,52.98
2022-09-13T11:00:06.325Z,53.88
2022-09-13T11:01:06.551Z,54.47
2022-09-13T11:02:06.665Z,55.19
2022-09-13T11:03:06.864Z,55.41
2022-09-13T11:04:07.043Z,56.21
2022-09-13T11:05:07.179Z,56.93
2022-09-13T11:06:07.357Z,57.32
2022-09-13T11:07:07.537Z,58.22
2022-09-13T11:08:07.727Z,58.15
2022-09-13T11:09:07.876Z,58.84
2022-09-13T11:10:08.057Z,59.63
2022-09-13T11:11:08.237Z,58.64
2022-09-13T11:12:08.428Z,59.36
2022-09-13T11:13:08.628Z,59.49
2022-09-13T11:14:08.788Z,60.19
2022-09-13T11:15:08.971Z,60.22
2022-09-13T11:16:09.187Z,60.61
2022-09-13T11:17:09.338Z,60.82
2022-09-13T11:18:09.498Z,60.55
2022-09-13T11:19:09.647Z,61.44
2022-09-13T11:20:09.951Z,61.04
2022-09-13T11:21:09.998Z,61.34
2022-09-13T11:22:10.179Z,61.24
2022-09-13T11:23:10.379Z,61.24
2022-09-13T11:24:10.528Z,61.24
2022-09-13T11:25:10.739Z,62.04
2022-09-13T11:26:10.877Z,62.23
2022-09-13T11:27:11.059Z,62.13
2022-09-13T11:28:11.259Z,61.87
2022-09-13T11:29:11.429Z,61.96
2022-09-13T11:30:11.613Z,62.46
2022-09-13T11:31:11.798Z,62.16
2022-09-13T11:32:11.970Z,61.67
2022-09-13T11:33:12.170Z,62.99
2022-09-13T11:34:12.309Z,62.99
2022-09-13T11:35:12.514Z,63.19
2022-09-13T11:36:12.695Z,62.89
2022-09-13T11:37:12.860Z,62.40
2022-09-13T11:38:13.051Z,62.99
2022-09-13T11:39:13.230Z,62.40
2022-09-13T11:40:13.439Z,62.59
2022-09-13T11:41:13.560Z,62.89
2022-09-13T11:42:13.740Z,62.49
2022-09-13T11:43:13.941Z,62.59
2022-09-13T11:44:14.081Z,63.29
2022-09-13T11:45:18.108Z,63.59
2022-09-13T11:46:15.466Z,63.19
2022-09-13T11:47:14.608Z,63.72
2022-09-13T11:48:14.812Z,64.12
2022-09-13T11:49:15.003Z,63.72
2022-09-13T11:50:15.103Z,64.31
2022-09-13T11:51:15.295Z,64.22
2022-09-13T11:52:15.472Z,64.22
2022-09-13T11:53:15.664Z,64.12
2022-09-13T11:54:15.802Z,63.72
2022-09-13T11:55:15.991Z,64.12
2022-09-13T11:56:16.163Z,63.82
2022-09-13T11:57:16.343Z,63.79
2022-09-13T11:58:16.541Z,63.69
2022-09-13T11:59:16.720Z,63.59
2022-09-13T12:00:16.893Z,63.39
2022-09-13T12:01:17.092Z,63.49
2022-09-13T12:02:17.337Z,63.16
2022-09-13T12:03:17.544Z,63.06
2022-09-13T12:04:17.624Z,62.83
2022-09-13T12:05:22.446Z,62.73
2022-09-13T12:06:18.962Z,62.73
2022-09-13T12:07:18.152Z,62.63
2022-09-13T12:08:18.344Z,62.53
2022-09-13T12:09:18.494Z,62.43
2022-09-13T12:10:18.673Z,62.34
2022-09-13T12:11:18.854Z,62.23
2022-09-13T12:12:19.034Z,62.21
2022-09-13T12:13:19.234Z,62.50
2022-09-13T12:14:19.377Z,62.30
2022-09-13T12:15:19.583Z,62.50
2022-09-13T12:16:19.741Z,61.61
2022-09-13T12:17:19.904Z,61.61
2022-09-13T12:18:20.104Z,62.01
2022-09-13T12:19:20.245Z,61.71
2022-09-13T12:20:20.425Z,61.88
2022-09-13T12:21:20.605Z,61.38
2022-09-13T12:22:20.785Z,61.08
2022-09-13T12:23:20.978Z,61.08
2022-09-13T12:24:21.116Z,61.65
2022-09-13T12:25:21.306Z,61.15
2022-09-13T12:26:21.489Z,60.85
2022-09-13T12:27:21.667Z,60.83
2022-09-13T12:28:21.908Z,60.63
2022-09-13T12:29:22.039Z,60.50
2022-09-13T12:30:22.211Z,60.10
2022-09-13T12:31:22.413Z,60.00
2022-09-13T12:32:22.534Z,59.88
2022-09-13T12:33:22.729Z,60.07
2022-09-13T12:34:22.877Z,59.65
2022-09-13T12:35:23.039Z,59.05
2022-09-13T12:36:23.227Z,59.25
2022-09-13T12:37:23.408Z,58.92
2022-09-13T12:38:26.106Z,58.83
2022-09-13T12:39:23.761Z,58.63
2022-09-13T12:40:23.999Z,57.64
2022-09-13T12:41:24.095Z,57.84
2022-09-13T12:42:24.301Z,58.33
2022-09-13T12:43:24.438Z,57.93
2022-09-13T12:44:24.620Z,58.23
2022-09-13T12:45:24.869Z,58.23
2022-09-13T12:46:24.990Z,57.93
2022-09-13T12:47:25.191Z,57.93
2022-09-13T12:48:25.329Z,58.03
2022-09-13T12:49:25.519Z,57.84
2022-09-13T12:50:42.836Z,57.44
2022-09-13T12:51:26.879Z,57.24
2022-09-13T12:52:26.080Z,57.34
2022-09-13T12:53:26.241Z,58.23
2022-09-13T12:54:26.390Z,57.74